sensor_id;sensor_type;location;lat;lon;timestamp;pressure;altitude;pressure_sealevel;temperature;humidity
57234;BME280;43090;52.604;13.318;2023-04-05T00:00:26;101907.00;;;-0.88;87.81
57234;BME280;43090;52.604;13.318;2023-04-05T00:02:54;101902.56;;;-0.77;87.80
57234;BME280;43090;52.604;13.318;2023-04-05T00:05:35;101905.03;;;-0.49;86.83
57234;BME280;43090;52.604;13.318;2023-04-05T00:08:05;101926.19;;;-0.71;87.04
57234;BME280;43090;52.604;13.318;2023-04-05T00:10:52;101915.72;;;-0.74;86.88
57234;BME280;43090;52.604;13.318;2023-04-05T00:13:20;101897.34;;;-0.86;87.25
57234;BME280;43090;52.604;13.318;2023-04-05T00:15:48;101911.22;;;-0.58;86.22
57234;BME280;43090;52.604;13.318;2023-04-05T00:18:14;101927.91;;;-0.60;85.66
57234;BME280;43090;52.604;13.318;2023-04-05T00:20:48;101918.22;;;-0.58;85.27
57234;BME280;43090;52.604;13.318;2023-04-05T00:23:14;101915.66;;;-0.64;85.98
57234;BME280;43090;52.604;13.318;2023-04-05T00:25:43;101914.81;;;-0.76;85.81
57234;BME280;43090;52.604;13.318;2023-04-05T00:28:33;101942.53;;;-0.16;85.06
57234;BME280;43090;52.604;13.318;2023-04-05T00:31:20;101912.19;;;-0.74;85.76
57234;BME280;43090;52.604;13.318;2023-04-05T00:33:50;101944.47;;;-0.43;85.99
57234;BME280;43090;52.604;13.318;2023-04-05T00:36:19;101889.41;;;-0.74;85.81
57234;BME280;43090;52.604;13.318;2023-04-05T00:38:47;101891.13;;;-0.68;85.00
57234;BME280;43090;52.604;13.318;2023-04-05T00:41:14;101903.34;;;-0.62;84.94
57234;BME280;43090;52.604;13.318;2023-04-05T00:43:42;101899.88;;;-0.69;84.67
57234;BME280;43090;52.604;13.318;2023-04-05T00:46:08;101893.00;;;-0.87;84.95
57234;BME280;43090;52.604;13.318;2023-04-05T00:48:37;101914.75;;;-0.60;84.95
57234;BME280;43090;52.604;13.318;2023-04-05T00:51:04;101931.28;;;-0.41;83.58
57234;BME280;43090;52.604;13.318;2023-04-05T00:53:35;101899.81;;;-0.55;83.59
57234;BME280;43090;52.604;13.318;2023-04-05T00:56:03;101909.31;;;-0.32;83.55
57234;BME280;43090;52.604;13.318;2023-04-05T00:58:30;101884.16;;;-0.80;84.29
57234;BME280;43090;52.604;13.318;2023-04-05T01:01:02;101910.34;;;-0.55;83.82
57234;BME280;43090;52.604;13.318;2023-04-05T01:03:34;101910.34;;;-0.58;84.12
57234;BME280;43090;52.604;13.318;2023-04-05T01:06:21;101898.88;;;-0.45;83.35
57234;BME280;43090;52.604;13.318;2023-04-05T01:09:04;101909.50;;;-0.62;84.39
57234;BME280;43090;52.604;13.318;2023-04-05T01:11:32;101920.97;;;-0.74;83.84
57234;BME280;43090;52.604;13.318;2023-04-05T01:14:01;101913.81;;;-0.53;83.35
57234;BME280;43090;52.604;13.318;2023-04-05T01:16:27;101907.03;;;-0.94;83.52
57234;BME280;43090;52.604;13.318;2023-04-05T01:18:55;101896.47;;;-0.80;83.68
57234;BME280;43090;52.604;13.318;2023-04-05T01:26:57;101927.88;;;-0.57;83.64
57234;BME280;43090;52.604;13.318;2023-04-05T01:29:47;101921.94;;;-0.95;84.58
57234;BME280;43090;52.604;13.318;2023-04-05T01:32:27;101901.78;;;-0.91;84.32
57234;BME280;43090;52.604;13.318;2023-04-05T01:51:12;101869.66;;;-2.02;90.83
57234;BME280;43090;52.604;13.318;2023-04-05T01:53:40;101859.13;;;-1.81;89.37
57234;BME280;43090;52.604;13.318;2023-04-05T01:56:13;101852.94;;;-1.59;87.81
57234;BME280;43090;52.604;13.318;2023-04-05T01:58:42;101869.53;;;-1.44;87.01
57234;BME280;43090;52.604;13.318;2023-04-05T02:01:08;101907.13;;;-1.16;86.40
57234;BME280;43090;52.604;13.318;2023-04-05T02:03:35;101904.53;;;-1.25;86.60
57234;BME280;43090;52.604;13.318;2023-04-05T02:06:01;101847.63;;;-1.31;85.79
57234;BME280;43090;52.604;13.318;2023-04-05T02:08:28;101902.72;;;-1.14;85.54
57234;BME280;43090;52.604;13.318;2023-04-05T02:10:54;101883.53;;;-1.35;86.33
57234;BME280;43090;52.604;13.318;2023-04-05T02:13:23;101871.28;;;-1.36;85.34
57234;BME280;43090;52.604;13.318;2023-04-05T02:15:51;101867.72;;;-1.28;85.62
57234;BME280;43090;52.604;13.318;2023-04-05T02:18:18;101838.81;;;-1.22;84.90
57234;BME280;43090;52.604;13.318;2023-04-05T02:20:49;101907.88;;;-0.88;85.11
57234;BME280;43090;52.604;13.318;2023-04-05T02:23:18;101908.63;;;-0.64;84.65
57234;BME280;43090;52.604;13.318;2023-04-05T02:25:45;101849.25;;;-1.01;83.76
57234;BME280;43090;52.604;13.318;2023-04-05T02:28:12;101871.03;;;-0.86;84.64
57234;BME280;43090;52.604;13.318;2023-04-05T02:30:38;101878.78;;;-0.58;83.62
57234;BME280;43090;52.604;13.318;2023-04-05T02:33:05;101875.31;;;-0.63;84.48
57234;BME280;43090;52.604;13.318;2023-04-05T02:35:35;101863.91;;;-0.59;83.49
57234;BME280;43090;52.604;13.318;2023-04-05T02:38:02;101873.50;;;-0.58;83.04
57234;BME280;43090;52.604;13.318;2023-04-05T02:40:30;101858.59;;;-0.56;83.23
57234;BME280;43090;52.604;13.318;2023-04-05T02:42:57;101873.41;;;-0.43;81.84
57234;BME280;43090;52.604;13.318;2023-04-05T02:45:23;101869.81;;;-0.31;82.04
57234;BME280;43090;52.604;13.318;2023-04-05T02:48:07;101869.00;;;-0.38;81.68
57234;BME280;43090;52.604;13.318;2023-04-05T02:50:34;101866.25;;;-0.22;81.59
57234;BME280;43090;52.604;13.318;2023-04-05T02:53:01;101857.53;;;-0.29;81.77
57234;BME280;43090;52.604;13.318;2023-04-05T02:55:27;101881.94;;;-0.10;81.86
57234;BME280;43090;52.604;13.318;2023-04-05T02:57:59;101854.09;;;-0.39;82.82
57234;BME280;43090;52.604;13.318;2023-04-05T03:00:26;101871.47;;;-0.14;82.27
57234;BME280;43090;52.604;13.318;2023-04-05T03:02:54;101850.47;;;-0.22;82.36
57234;BME280;43090;52.604;13.318;2023-04-05T03:05:21;101846.88;;;-0.12;81.76
57234;BME280;43090;52.604;13.318;2023-04-05T03:07:48;101875.66;;;0.05;82.47
57234;BME280;43090;52.604;13.318;2023-04-05T03:10:19;101801.53;;;-0.45;82.24
57234;BME280;43090;52.604;13.318;2023-04-05T03:12:47;101818.06;;;-0.32;81.91
57234;BME280;43090;52.604;13.318;2023-04-05T03:15:16;101810.91;;;-0.16;81.50
57234;BME280;43090;52.604;13.318;2023-04-05T03:17:43;101865.03;;;0.14;81.98
57234;BME280;43090;52.604;13.318;2023-04-05T03:20:10;101832.00;;;-0.21;82.61
57234;BME280;43090;52.604;13.318;2023-04-05T03:22:37;101823.25;;;-0.21;81.49
57234;BME280;43090;52.604;13.318;2023-04-05T03:25:04;101819.72;;;-0.22;81.48
57234;BME280;43090;52.604;13.318;2023-04-05T03:27:31;101826.91;;;-0.39;81.08
57234;BME280;43090;52.604;13.318;2023-04-05T03:29:57;101820.53;;;-0.10;80.50
57234;BME280;43090;52.604;13.318;2023-04-05T03:32:23;101858.94;;;0.12;80.65
57234;BME280;43090;52.604;13.318;2023-04-05T03:34:50;101823.25;;;-0.23;82.13
57234;BME280;43090;52.604;13.318;2023-04-05T03:37:17;101852.88;;;0.01;82.37
57234;BME280;43090;52.604;13.318;2023-04-05T03:39:43;101819.78;;;-0.28;82.18
57234;BME280;43090;52.604;13.318;2023-04-05T03:42:10;101804.75;;;-0.15;81.33
57234;BME280;43090;52.604;13.318;2023-04-05T03:44:36;101846.50;;;0.25;81.29
57234;BME280;43090;52.604;13.318;2023-04-05T03:47:03;101819.78;;;-0.28;81.58
57234;BME280;43090;52.604;13.318;2023-04-05T03:49:29;101853.69;;;0.08;82.03
57234;BME280;43090;52.604;13.318;2023-04-05T03:51:56;101853.84;;;-0.08;81.63
57234;BME280;43090;52.604;13.318;2023-04-05T03:54:22;101803.00;;;-0.16;81.32
57234;BME280;43090;52.604;13.318;2023-04-05T03:56:49;101855.38;;;0.15;82.28
57234;BME280;43090;52.604;13.318;2023-04-05T03:59:15;101821.44;;;-0.18;82.47
57234;BME280;43090;52.604;13.318;2023-04-05T04:01:42;101831.88;;;-0.05;82.13
57234;BME280;43090;52.604;13.318;2023-04-05T04:04:10;101834.44;;;0.01;82.01
57234;BME280;43090;52.604;13.318;2023-04-05T04:06:38;101830.81;;;0.13;81.86
57234;BME280;43090;52.604;13.318;2023-04-05T04:09:05;101824.75;;;0.06;81.19
57234;BME280;43090;52.604;13.318;2023-04-05T04:11:32;101830.91;;;0.07;80.53
57234;BME280;43090;52.604;13.318;2023-04-05T04:13:58;101823.13;;;-0.07;79.51
57234;BME280;43090;52.604;13.318;2023-04-05T04:16:35;101794.28;;;-0.23;81.30
57234;BME280;43090;52.604;13.318;2023-04-05T04:19:01;101821.19;;;0.10;80.51
57234;BME280;43090;52.604;13.318;2023-04-05T04:21:28;101851.81;;;0.21;80.55
57234;BME280;43090;52.604;13.318;2023-04-05T04:23:57;101827.44;;;-0.02;81.15
57234;BME280;43090;52.604;13.318;2023-04-05T04:26:26;101836.09;;;0.13;81.74
57234;BME280;43090;52.604;13.318;2023-04-05T04:28:54;101844.94;;;0.06;82.18
57234;BME280;43090;52.604;13.318;2023-04-05T04:31:21;101817.63;;;0.16;81.36
57234;BME280;43090;52.604;13.318;2023-04-05T04:33:48;101845.41;;;0.45;80.90
57234;BME280;43090;52.604;13.318;2023-04-05T04:36:15;101820.44;;;-0.04;81.79
57234;BME280;43090;52.604;13.318;2023-04-05T04:38:45;101849.09;;;0.30;81.82
57234;BME280;43090;52.604;13.318;2023-04-05T04:41:12;101827.97;;;0.33;81.34
57234;BME280;43090;52.604;13.318;2023-04-05T04:43:39;101829.00;;;0.18;81.97
57234;BME280;43090;52.604;13.318;2023-04-05T04:46:09;101806.25;;;0.12;81.07
57234;BME280;43090;52.604;13.318;2023-04-05T04:48:43;101816.72;;;0.17;81.02
57234;BME280;43090;52.604;13.318;2023-04-05T04:51:28;101801.91;;;0.08;81.08
57234;BME280;43090;52.604;13.318;2023-04-05T04:53:55;101808.94;;;0.09;80.63
57234;BME280;43090;52.604;13.318;2023-04-05T04:56:24;101821.06;;;0.23;80.57
57234;BME280;43090;52.604;13.318;2023-04-05T04:58:55;101815.69;;;0.30;80.54
57234;BME280;43090;52.604;13.318;2023-04-05T05:01:22;101829.66;;;0.40;81.17
57234;BME280;43090;52.604;13.318;2023-04-05T05:03:51;101829.63;;;0.43;81.26
57234;BME280;43090;52.604;13.318;2023-04-05T05:06:17;101835.66;;;0.53;80.48
57234;BME280;43090;52.604;13.318;2023-04-05T05:08:50;101828.59;;;0.55;80.34
57234;BME280;43090;52.604;13.318;2023-04-05T05:11:16;101849.56;;;0.64;80.84
57234;BME280;43090;52.604;13.318;2023-04-05T05:13:43;101831.38;;;0.43;81.05
57234;BME280;43090;52.604;13.318;2023-04-05T05:16:13;101806.72;;;0.48;79.90
57234;BME280;43090;52.604;13.318;2023-04-05T05:18:40;101846.84;;;0.72;81.06
57234;BME280;43090;52.604;13.318;2023-04-05T05:21:18;101800.69;;;0.39;80.59
57234;BME280;43090;52.604;13.318;2023-04-05T05:23:45;101812.72;;;0.61;80.72
57234;BME280;43090;52.604;13.318;2023-04-05T05:26:18;101786.38;;;0.61;80.13
57234;BME280;43090;52.604;13.318;2023-04-05T05:28:44;101800.25;;;0.76;80.13
57234;BME280;43090;52.604;13.318;2023-04-05T05:31:16;101832.03;;;0.62;79.72
57234;BME280;43090;52.604;13.318;2023-04-05T05:33:43;101818.63;;;0.80;79.58
57234;BME280;43090;52.604;13.318;2023-04-05T05:36:15;101809.78;;;0.85;79.65
57234;BME280;43090;52.604;13.318;2023-04-05T05:38:42;101835.81;;;1.09;79.91
57234;BME280;43090;52.604;13.318;2023-04-05T05:41:09;101823.44;;;1.14;79.72
57234;BME280;43090;52.604;13.318;2023-04-05T05:43:35;101846.03;;;1.34;79.33
57234;BME280;43090;52.604;13.318;2023-04-05T05:46:02;101815.34;;;1.27;78.97
57234;BME280;43090;52.604;13.318;2023-04-05T05:48:29;101829.13;;;1.46;78.70
57234;BME280;43090;52.604;13.318;2023-04-05T05:50:56;101815.19;;;1.38;78.69
57234;BME280;43090;52.604;13.318;2023-04-05T05:53:27;101785.66;;;1.12;76.89
57234;BME280;43090;52.604;13.318;2023-04-05T05:55:58;101847.19;;;1.71;77.37
57234;BME280;43090;52.604;13.318;2023-04-05T05:58:34;101779.81;;;1.48;76.96
57234;BME280;43090;52.604;13.318;2023-04-05T06:01:00;101820.56;;;1.85;76.48
57234;BME280;43090;52.604;13.318;2023-04-05T06:03:31;101832.63;;;1.99;75.56
57234;BME280;43090;52.604;13.318;2023-04-05T06:05:58;101831.53;;;2.11;74.96
57234;BME280;43090;52.604;13.318;2023-04-05T06:08:25;101835.53;;;2.34;74.85
57234;BME280;43090;52.604;13.318;2023-04-05T06:11:22;101836.44;;;2.33;73.45
57234;BME280;43090;52.604;13.318;2023-04-05T06:18:18;101828.09;;;2.08;70.80
57234;BME280;43090;52.604;13.318;2023-04-05T06:20:54;101822.22;;;2.39;70.47
57234;BME280;43090;52.604;13.318;2023-04-05T06:23:21;101822.19;;;2.40;69.17
57234;BME280;43090;52.604;13.318;2023-04-05T06:25:47;101821.06;;;2.52;69.17
57234;BME280;43090;52.604;13.318;2023-04-05T06:28:14;101837.41;;;2.73;68.16
57234;BME280;43090;52.604;13.318;2023-04-05T06:30:41;101826.84;;;2.71;68.21
57234;BME280;43090;52.604;13.318;2023-04-05T06:33:08;101836.69;;;2.64;67.55
57234;BME280;43090;52.604;13.318;2023-04-05T06:35:34;101825.53;;;2.92;67.04
57234;BME280;43090;52.604;13.318;2023-04-05T06:38:01;101807.03;;;2.91;66.50
57234;BME280;43090;52.604;13.318;2023-04-05T06:40:28;101813.47;;;3.20;66.56
57234;BME280;43090;52.604;13.318;2023-04-05T06:42:54;101802.69;;;3.27;66.34
57234;BME280;43090;52.604;13.318;2023-04-05T06:45:21;101823.75;;;3.33;66.15
57234;BME280;43090;52.604;13.318;2023-04-05T06:47:48;101828.44;;;3.58;65.87
57234;BME280;43090;52.604;13.318;2023-04-05T06:50:15;101803.88;;;3.52;65.27
57234;BME280;43090;52.604;13.318;2023-04-05T06:52:41;101806.31;;;3.61;65.24
57234;BME280;43090;52.604;13.318;2023-04-05T06:55:08;101814.97;;;3.67;64.08
57234;BME280;43090;52.604;13.318;2023-04-05T06:57:35;101796.88;;;3.85;63.47
57234;BME280;43090;52.604;13.318;2023-04-05T07:00:02;101804.94;;;4.13;64.21
57234;BME280;43090;52.604;13.318;2023-04-05T07:02:34;101806.69;;;4.14;63.62
57234;BME280;43090;52.604;13.318;2023-04-05T07:05:04;101782.63;;;4.22;62.27
57234;BME280;43090;52.604;13.318;2023-04-05T07:07:31;101813.19;;;4.36;62.35
57234;BME280;43090;52.604;13.318;2023-04-05T07:10:01;101812.28;;;4.37;61.89
57234;BME280;43090;52.604;13.318;2023-04-05T07:12:28;101788.84;;;4.21;59.90
57234;BME280;43090;52.604;13.318;2023-04-05T07:14:54;101777.03;;;4.63;60.84
57234;BME280;43090;52.604;13.318;2023-04-05T07:17:21;101782.78;;;4.16;61.10
57234;BME280;43090;52.604;13.318;2023-04-05T07:19:48;101812.13;;;5.03;60.89
57234;BME280;43090;52.604;13.318;2023-04-05T07:22:16;101779.00;;;4.86;59.74
57234;BME280;43090;52.604;13.318;2023-04-05T07:24:44;101800.13;;;5.19;59.42
57234;BME280;43090;52.604;13.318;2023-04-05T07:27:12;101814.94;;;4.37;57.07
57234;BME280;43090;52.604;13.318;2023-04-05T07:29:39;101841.97;;;4.49;58.69
57234;BME280;43090;52.604;13.318;2023-04-05T07:32:21;101790.22;;;3.69;59.71
57234;BME280;43090;52.604;13.318;2023-04-05T07:34:52;101818.75;;;3.93;60.37
57234;BME280;43090;52.604;13.318;2023-04-05T07:37:18;101839.19;;;4.84;59.02
57234;BME280;43090;52.604;13.318;2023-04-05T07:39:45;101818.03;;;4.82;58.84
57234;BME280;43090;52.604;13.318;2023-04-05T07:42:12;101790.75;;;4.77;58.16
57234;BME280;43090;52.604;13.318;2023-04-05T07:44:38;101793.63;;;4.70;59.96
57234;BME280;43090;52.604;13.318;2023-04-05T07:47:05;101795.19;;;5.35;59.34
57234;BME280;43090;52.604;13.318;2023-04-05T07:49:31;101787.75;;;4.90;56.97
57234;BME280;43090;52.604;13.318;2023-04-05T07:52:00;101804.94;;;4.46;58.65
57234;BME280;43090;52.604;13.318;2023-04-05T07:54:26;101780.69;;;4.59;59.15
57234;BME280;43090;52.604;13.318;2023-04-05T07:56:53;101777.03;;;4.63;60.39
57234;BME280;43090;52.604;13.318;2023-04-05T07:59:21;101775.06;;;4.70;62.93
57234;BME280;43090;52.604;13.318;2023-04-05T08:01:53;101777.53;;;4.76;60.01
57234;BME280;43090;52.604;13.318;2023-04-05T08:04:39;101773.59;;;4.29;60.04
57234;BME280;43090;52.604;13.318;2023-04-05T08:07:06;101773.56;;;4.61;58.27
57234;BME280;43090;52.604;13.318;2023-04-05T08:09:32;101825.88;;;4.87;57.69
57234;BME280;43090;52.604;13.318;2023-04-05T08:12:15;101826.41;;;4.98;58.26
57234;BME280;43090;52.604;13.318;2023-04-05T08:14:57;101778.91;;;4.89;57.59
57234;BME280;43090;52.604;13.318;2023-04-05T08:17:43;101814.75;;;5.32;57.47
57234;BME280;43090;52.604;13.318;2023-04-05T08:20:09;101825.63;;;5.51;55.13
57234;BME280;43090;52.604;13.318;2023-04-05T08:30:12;101790.38;;;6.00;53.94
57234;BME280;43090;52.604;13.318;2023-04-05T08:32:39;101770.03;;;6.72;50.90
57234;BME280;43090;52.604;13.318;2023-04-05T08:35:06;101820.13;;;7.30;51.16
57234;BME280;43090;52.604;13.318;2023-04-05T08:37:34;101766.66;;;7.57;51.00
57234;BME280;43090;52.604;13.318;2023-04-05T08:43:56;101818.19;;;7.11;52.02
57234;BME280;43090;52.604;13.318;2023-04-05T08:46:31;101771.63;;;6.05;52.24
57234;BME280;43090;52.604;13.318;2023-04-05T08:48:58;101766.38;;;6.27;53.66
57234;BME280;43090;52.604;13.318;2023-04-05T08:51:28;101795.84;;;6.93;53.33
57234;BME280;43090;52.604;13.318;2023-04-05T08:53:55;101774.56;;;6.46;53.54
57234;BME280;43090;52.604;13.318;2023-04-05T08:56:26;101785.66;;;6.57;53.72
57234;BME280;43090;52.604;13.318;2023-04-05T08:59:01;101813.78;;;6.64;50.89
57234;BME280;43090;52.604;13.318;2023-04-05T09:01:31;101809.09;;;6.71;51.66
57234;BME280;43090;52.604;13.318;2023-04-05T09:04:05;101761.34;;;6.66;50.94
57234;BME280;43090;52.604;13.318;2023-04-05T09:06:34;101778.88;;;5.46;52.41
57234;BME280;43090;52.604;13.318;2023-04-05T09:09:05;101773.22;;;6.34;53.31
57234;BME280;43090;52.604;13.318;2023-04-05T09:11:32;101808.41;;;6.90;51.17
57234;BME280;43090;52.604;13.318;2023-04-05T09:14:02;101815.50;;;7.35;49.80
57234;BME280;43090;52.604;13.318;2023-04-05T09:16:31;101783.44;;;6.92;48.34
57234;BME280;43090;52.604;13.318;2023-04-05T09:22:43;101806.56;;;7.14;50.18
57234;BME280;43090;52.604;13.318;2023-04-05T09:25:38;101811.91;;;7.36;49.77
57234;BME280;43090;52.604;13.318;2023-04-05T09:28:13;101813.44;;;6.74;49.76
57234;BME280;43090;52.604;13.318;2023-04-05T09:48:51;101769.47;;;7.74;49.59
57234;BME280;43090;52.604;13.318;2023-04-05T09:51:20;101783.13;;;7.66;47.91
57234;BME280;43090;52.604;13.318;2023-04-05T09:54:42;101745.13;;;7.61;47.68
57234;BME280;43090;52.604;13.318;2023-04-05T09:57:46;101776.03;;;7.45;47.38
57234;BME280;43090;52.604;13.318;2023-04-05T10:00:21;101763.94;;;7.58;51.38
57234;BME280;43090;52.604;13.318;2023-04-05T10:02:54;101737.56;;;7.08;49.12
57234;BME280;43090;52.604;13.318;2023-04-05T10:05:37;101785.06;;;7.41;49.05
57234;BME280;43090;52.604;13.318;2023-04-05T10:08:04;101766.41;;;7.41;49.87
57234;BME280;43090;52.604;13.318;2023-04-05T10:13:34;101737.72;;;6.81;49.69
57234;BME280;43090;52.604;13.318;2023-04-05T10:16:12;101802.53;;;7.04;50.98
57234;BME280;43090;52.604;13.318;2023-04-05T10:21:34;101742.53;;;7.17;51.59
57234;BME280;43090;52.604;13.318;2023-04-05T10:35:59;101784.34;;;7.80;50.20
57234;BME280;43090;52.604;13.318;2023-04-05T10:41:25;101752.31;;;7.59;48.58
57234;BME280;43090;52.604;13.318;2023-04-05T10:46:40;101727.66;;;6.67;49.41
57234;BME280;43090;52.604;13.318;2023-04-05T10:49:25;101726.66;;;7.36;48.80
57234;BME280;43090;52.604;13.318;2023-04-05T10:52:01;101729.69;;;7.05;49.01
57234;BME280;43090;52.604;13.318;2023-04-05T10:54:51;101743.63;;;7.33;51.25
57234;BME280;43090;52.604;13.318;2023-04-05T10:57:18;101772.34;;;7.90;49.44
57234;BME280;43090;52.604;13.318;2023-04-05T10:59:48;101784.78;;;7.90;49.16
57234;BME280;43090;52.604;13.318;2023-04-05T11:02:29;101726.91;;;7.30;49.29
57234;BME280;43090;52.604;13.318;2023-04-05T11:05:31;101749.59;;;7.61;50.61
57234;BME280;43090;52.604;13.318;2023-04-05T11:12:09;101741.44;;;6.77;50.08
57234;BME280;43090;52.604;13.318;2023-04-05T11:18:22;101716.59;;;6.54;51.84
57234;BME280;43090;52.604;13.318;2023-04-05T11:21:56;101724.72;;;6.73;50.43
57234;BME280;43090;52.604;13.318;2023-04-05T11:24:51;101783.16;;;7.22;49.35
57234;BME280;43090;52.604;13.318;2023-04-05T11:27:38;101739.72;;;6.76;51.73
57234;BME280;43090;52.604;13.318;2023-04-05T11:30:45;101758.41;;;7.41;49.72
57234;BME280;43090;52.604;13.318;2023-04-05T11:33:58;101739.16;;;7.77;49.61
57234;BME280;43090;52.604;13.318;2023-04-05T11:36:46;101736.22;;;7.62;51.57
57234;BME280;43090;52.604;13.318;2023-04-05T11:41:57;101764.25;;;7.28;50.81
57234;BME280;43090;52.604;13.318;2023-04-05T11:44:48;101728.84;;;6.58;50.53
57234;BME280;43090;52.604;13.318;2023-04-05T11:47:22;101777.06;;;6.96;49.81
57234;BME280;43090;52.604;13.318;2023-04-05T11:50:03;101730.41;;;6.40;49.04
57234;BME280;43090;52.604;13.318;2023-04-05T11:53:14;101762.81;;;6.75;48.87
57234;BME280;43090;52.604;13.318;2023-04-05T11:56:08;101719.94;;;6.59;51.60
57234;BME280;43090;52.604;13.318;2023-04-05T11:59:04;101717.66;;;6.50;50.44
57234;BME280;43090;52.604;13.318;2023-04-05T12:01:43;101721.84;;;6.56;49.83
57234;BME280;43090;52.604;13.318;2023-04-05T12:04:12;101767.34;;;6.95;49.74
57234;BME280;43090;52.604;13.318;2023-04-05T12:10:09;101767.00;;;6.81;52.32
57234;BME280;43090;52.604;13.318;2023-04-05T12:13:10;101724.00;;;6.70;53.11
57234;BME280;43090;52.604;13.318;2023-04-05T12:19:09;101750.66;;;6.68;52.29
57234;BME280;43090;52.604;13.318;2023-04-05T12:22:23;101721.44;;;6.19;52.76
57234;BME280;43090;52.604;13.318;2023-04-05T12:25:12;101755.44;;;6.82;53.17
57234;BME280;43090;52.604;13.318;2023-04-05T12:27:45;101722.00;;;6.29;53.74
57234;BME280;43090;52.604;13.318;2023-04-05T12:37:28;101677.97;;;6.44;49.72
57234;BME280;43090;52.604;13.318;2023-04-05T12:43:42;101719.28;;;7.63;48.66
57234;BME280;43090;52.604;13.318;2023-04-05T12:46:16;101728.22;;;7.62;48.06
57234;BME280;43090;52.604;13.318;2023-04-05T12:48:49;101709.47;;;7.00;48.33
57234;BME280;43090;52.604;13.318;2023-04-05T12:51:40;101729.16;;;6.96;47.43
57234;BME280;43090;52.604;13.318;2023-04-05T12:54:13;101723.25;;;7.10;49.86
57234;BME280;43090;52.604;13.318;2023-04-05T12:56:45;101691.56;;;7.47;49.74
57234;BME280;43090;52.604;13.318;2023-04-05T12:59:12;101708.28;;;7.71;50.04
57234;BME280;43090;52.604;13.318;2023-04-05T13:01:39;101716.53;;;8.25;48.35
57234;BME280;43090;52.604;13.318;2023-04-05T13:04:05;101703.47;;;7.59;47.33
57234;BME280;43090;52.604;13.318;2023-04-05T13:06:42;101704.59;;;7.74;50.05
57234;BME280;43090;52.604;13.318;2023-04-05T13:09:09;101671.31;;;7.43;49.90
57234;BME280;43090;52.604;13.318;2023-04-05T13:11:36;101701.81;;;7.56;51.35
57234;BME280;43090;52.604;13.318;2023-04-05T13:22:12;101665.63;;;8.11;47.92
57234;BME280;43090;52.604;13.318;2023-04-05T13:24:39;101667.03;;;7.80;45.05
57234;BME280;43090;52.604;13.318;2023-04-05T13:27:05;101687.00;;;7.70;46.40
57234;BME280;43090;52.604;13.318;2023-04-05T13:29:38;101654.13;;;6.87;47.33
57234;BME280;43090;52.604;13.318;2023-04-05T13:32:24;101689.88;;;7.44;46.75
57234;BME280;43090;52.604;13.318;2023-04-05T13:34:57;101628.25;;;7.52;49.35
57234;BME280;43090;52.604;13.318;2023-04-05T13:41:37;101635.34;;;7.53;45.62
57234;BME280;43090;52.604;13.318;2023-04-05T13:44:22;101643.66;;;7.66;45.71
57234;BME280;43090;52.604;13.318;2023-04-05T13:46:49;101616.34;;;8.00;44.71
57234;BME280;43090;52.604;13.318;2023-04-05T13:52:59;101601.63;;;8.30;48.17
57234;BME280;43090;52.604;13.318;2023-04-05T13:55:26;101623.53;;;8.17;45.04
57234;BME280;43090;52.604;13.318;2023-04-05T13:57:53;101615.59;;;8.54;46.11
57234;BME280;43090;52.604;13.318;2023-04-05T14:00:19;101603.34;;;8.50;45.36
57234;BME280;43090;52.604;13.318;2023-04-05T14:02:46;101613.53;;;7.64;43.35
57234;BME280;43090;52.604;13.318;2023-04-05T14:05:14;101603.34;;;8.12;43.50
57234;BME280;43090;52.604;13.318;2023-04-05T14:07:42;101615.25;;;8.43;42.93
57234;BME280;43090;52.604;13.318;2023-04-05T14:10:12;101582.88;;;8.31;43.85
57234;BME280;43090;52.604;13.318;2023-04-05T14:12:38;101615.50;;;8.17;42.58
57234;BME280;43090;52.604;13.318;2023-04-05T14:15:06;101605.84;;;8.90;44.20
57234;BME280;43090;52.604;13.318;2023-04-05T14:17:56;101583.56;;;8.54;41.83
57234;BME280;43090;52.604;13.318;2023-04-05T14:20:24;101595.09;;;8.74;42.09
57234;BME280;43090;52.604;13.318;2023-04-05T14:22:54;101598.66;;;8.55;41.27
57234;BME280;43090;52.604;13.318;2023-04-05T14:25:21;101587.25;;;8.52;41.48
57234;BME280;43090;52.604;13.318;2023-04-05T14:27:47;101600.28;;;8.39;41.98
57234;BME280;43090;52.604;13.318;2023-04-05T14:30:14;101608.00;;;8.45;42.22
57234;BME280;43090;52.604;13.318;2023-04-05T14:32:40;101599.38;;;8.01;43.23
57234;BME280;43090;52.604;13.318;2023-04-05T14:35:07;101582.81;;;7.55;43.18
57234;BME280;43090;52.604;13.318;2023-04-05T14:37:34;101586.03;;;8.01;42.73
57234;BME280;43090;52.604;13.318;2023-04-05T14:40:01;101599.16;;;8.25;43.64
57234;BME280;43090;52.604;13.318;2023-04-05T14:42:27;101570.06;;;7.43;44.61
57234;BME280;43090;52.604;13.318;2023-04-05T14:45:13;101603.13;;;7.58;45.71
57234;BME280;43090;52.604;13.318;2023-04-05T14:47:40;101597.66;;;7.21;48.16
57234;BME280;43090;52.604;13.318;2023-04-05T14:50:06;101608.31;;;7.21;49.53
57234;BME280;43090;52.604;13.318;2023-04-05T14:52:33;101559.22;;;7.06;50.49
57234;BME280;43090;52.604;13.318;2023-04-05T14:54:59;101557.81;;;7.18;51.85
57234;BME280;43090;52.604;13.318;2023-04-05T14:57:26;101592.75;;;7.10;54.52
57234;BME280;43090;52.604;13.318;2023-04-05T14:59:56;101562.31;;;7.37;54.84
57234;BME280;43090;52.604;13.318;2023-04-05T15:02:26;101582.81;;;7.55;50.09
57234;BME280;43090;52.604;13.318;2023-04-05T15:04:53;101598.63;;;7.39;53.23
57234;BME280;43090;52.604;13.318;2023-04-05T15:07:20;101596.38;;;7.70;51.53
57234;BME280;43090;52.604;13.318;2023-04-05T15:09:49;101580.16;;;7.55;50.65
57234;BME280;43090;52.604;13.318;2023-04-05T15:12:20;101593.16;;;7.01;49.23
57234;BME280;43090;52.604;13.318;2023-04-05T15:14:47;101600.81;;;7.09;49.44
57234;BME280;43090;52.604;13.318;2023-04-05T15:17:19;101601.16;;;7.22;48.75